Página principal
METAR-TAF:

METAR-TAF

Aeroportos :

Gran Canária, Espanha

Aeroporto de Gran Canária

latitude: 27-56N, longitude: 015-23W, altura: 23 m

Observação actual do tempo

O boletim foi feito há 27 minutos, às 11:00 UTC
Vento 27 kt de nor-nordeste
Temperatura 25°C
Humidade 74%
Pressão 1013 hPa
Visibilidade 10 km ou mais
Poucas nuvensa uma altura de 2000 ft

METAR: GCLP 231100Z 02027KT 9999 FEW020 25/20 Q1013 NOSIG

Hora: 12:27 (11:27 UTC)

Previsão

O boletim foi feito há 3 horas e 27 minutos, às 08:00 UTC
Previsão válida de 23 às 09 UTC a 24 às 09 UTC
Vento 25 kt de nor-nordeste
Visibilidade 10 km ou mais
Poucas nuvensa uma altura de 2000 ft
Probabilidade 30% :
Temporariamente
de 23 às 09 UTC a 23 às 21 UTC
Vento 25 kt de nor-nordeste com rajadas de 35 kt

TAF: GCLP 230800Z 2309/2409 02025KT 9999 FEW020 TX31/2314Z TN23/2405Z PROB30 TEMPO 2309/2321 02025G35KT

Observações e previsões do tempo de mais de 4000 aeroportos (mensagens METAR e TAF).

As estações disponíveis são os pontos amarelos e vermelhos sobre o mapa.

Mova o rato sobre o mapa para ver o nome da estação.

Depois clique no ponto para visualizar as observações e previsões meteorológicas.

Para alterar o mapa : clique nos botões verdes com uma cruz preta para aumentar o zoom; no botão verde com uma pitada de zoom; ou nas setas verdes para mapas adjacentes.


METAR-TAF: